<?xml version="1.0" encoding="utf-8"?>
<gpx xmlns:xsi="http://www.w3.org/2001/XMLSchema-instance" xmlns:xsd="http://www.w3.org/2001/XMLSchema" xsi:schemaLocation="http://www.topografix.com/GPX/1/0 http://www.topografix.com/GPX/1/0/gpx.xsd" version="1.0" creator="QuoVadis 6.0.9.15" xmlns="http://www.topografix.com/GPX/1/0">
  <name>qv6</name>
  <trk>
    <name>Naturrundweg-Hiesfelderwald</name>
    <trkseg>
      <trkpt lat="51.5589627" lon="6.830195">
        <ele>73.19763</ele>
        <time>2009-06-07T07:39:24Z</time>
      </trkpt>
      <trkpt lat="51.5589621" lon="6.8301957">
        <ele>73.19763</ele>
        <time>2009-06-07T07:39:25Z</time>
        <speed>0.2970127</speed>
      </trkpt>
      <trkpt lat="51.5589649" lon="6.8301966">
        <ele>73.19763</ele>
        <time>2009-06-07T07:39:26Z</time>
        <speed>1.143721</speed>
      </trkpt>
      <trkpt lat="51.5589173" lon="6.8302456">
        <ele>73.19763</ele>
        <time>2009-06-07T07:39:33Z</time>
        <speed>3.234876</speed>
      </trkpt>
      <trkpt lat="51.5588336" lon="6.8303949">
        <ele>73.19763</ele>
        <time>2009-06-07T07:39:51Z</time>
        <speed>2.783159</speed>
      </trkpt>
      <trkpt lat="51.5587801" lon="6.8304888">
        <ele>73.19763</ele>
        <time>2009-06-07T07:40:16Z</time>
        <speed>1.269549</speed>
      </trkpt>
      <trkpt lat="51.5587119" lon="6.8305821">
        <ele>73.19763</ele>
        <time>2009-06-07T07:40:27Z</time>
        <speed>3.261808</speed>
      </trkpt>
      <trkpt lat="51.558632" lon="6.8307791">
        <ele>73.19763</ele>
        <time>2009-06-07T07:40:42Z</time>
        <speed>3.90836</speed>
      </trkpt>
      <trkpt lat="51.5586421" lon="6.8309651">
        <ele>73.67822</ele>
        <time>2009-06-07T07:40:56Z</time>
        <speed>3.325243</speed>
      </trkpt>
      <trkpt lat="51.5585999" lon="6.8310993">
        <ele>73.67822</ele>
        <time>2009-06-07T07:41:18Z</time>
        <speed>1.704009</speed>
      </trkpt>
      <trkpt lat="51.5585405" lon="6.8311613">
        <ele>74.15881</ele>
        <time>2009-06-07T07:41:27Z</time>
        <speed>3.152552</speed>
      </trkpt>
      <trkpt lat="51.5584987" lon="6.8312539">
        <ele>74.15881</ele>
        <time>2009-06-07T07:41:35Z</time>
        <speed>3.565029</speed>
      </trkpt>
      <trkpt lat="51.5584368" lon="6.8313901">
        <ele>73.67822</ele>
        <time>2009-06-07T07:41:46Z</time>
        <speed>3.822499</speed>
      </trkpt>
      <trkpt lat="51.5584814" lon="6.8315759">
        <ele>74.15881</ele>
        <time>2009-06-07T07:41:54Z</time>
        <speed>6.206551</speed>
      </trkpt>
      <trkpt lat="51.5585856" lon="6.8317116">
        <ele>73.67822</ele>
        <time>2009-06-07T07:42:10Z</time>
        <speed>3.357998</speed>
      </trkpt>
      <trkpt lat="51.5586283" lon="6.8317816">
        <ele>73.67822</ele>
        <time>2009-06-07T07:42:16Z</time>
        <speed>4.072741</speed>
      </trkpt>
      <trkpt lat="51.5601788" lon="6.8337086">
        <ele>75.60083</ele>
        <time>2009-06-07T07:45:15Z</time>
        <speed>5.529499</speed>
      </trkpt>
      <trkpt lat="51.5602721" lon="6.8338631">
        <ele>75.60083</ele>
        <time>2009-06-07T07:45:30Z</time>
        <speed>3.577968</speed>
      </trkpt>
      <trkpt lat="51.5604036" lon="6.8340245">
        <ele>77.04285</ele>
        <time>2009-06-07T07:45:53Z</time>
        <speed>2.881907</speed>
      </trkpt>
      <trkpt lat="51.560549" lon="6.8342254">
        <ele>77.04285</ele>
        <time>2009-06-07T07:46:15Z</time>
        <speed>3.491622</speed>
      </trkpt>
      <trkpt lat="51.5605696" lon="6.8342242">
        <ele>76.08142</ele>
        <time>2009-06-07T07:46:17Z</time>
        <speed>4.128195</speed>
      </trkpt>
      <trkpt lat="51.5607244" lon="6.834446">
        <ele>78.00403</ele>
        <time>2009-06-07T07:46:38Z</time>
        <speed>3.95626</speed>
      </trkpt>
      <trkpt lat="51.5609133" lon="6.8344877">
        <ele>78.48474</ele>
        <time>2009-06-07T07:46:53Z</time>
        <speed>5.091439</speed>
      </trkpt>
      <trkpt lat="51.5611795415755" lon="6.83412392483238">
        <ele>74.63953</ele>
        <time>2009-06-07T07:47:10Z</time>
        <speed>3.803321</speed>
      </trkpt>
      <trkpt lat="51.5611508" lon="6.8342899">
        <ele>75.12024</ele>
        <time>2009-06-07T07:47:14Z</time>
        <speed>4.926849</speed>
      </trkpt>
      <trkpt lat="51.5615302433936" lon="6.8334149277275">
        <ele>72.23621</ele>
        <time>2009-06-07T07:48:09Z</time>
        <speed>3.483728</speed>
      </trkpt>
      <trkpt lat="51.562273" lon="6.8323097">
        <ele>71.75549</ele>
        <time>2009-06-07T07:50:01Z</time>
        <speed>4.231087</speed>
      </trkpt>
      <trkpt lat="51.5626442002211" lon="6.83165282545137">
        <ele>71.75549</ele>
        <time>2009-06-07T07:51:00Z</time>
        <speed>4.446134</speed>
      </trkpt>
      <trkpt lat="51.5629277" lon="6.8316982">
        <ele>71.2749</ele>
        <time>2009-06-07T07:51:21Z</time>
        <speed>3.601796</speed>
      </trkpt>
      <trkpt lat="51.563128" lon="6.831899">
        <ele>71.2749</ele>
        <time>2009-06-07T07:51:42Z</time>
        <speed>4.503109</speed>
      </trkpt>
      <trkpt lat="51.563335" lon="6.8318881">
        <ele>70.79419</ele>
        <time>2009-06-07T07:51:56Z</time>
        <speed>5.92534</speed>
      </trkpt>
      <trkpt lat="51.563468" lon="6.8318962">
        <ele>70.79419</ele>
        <time>2009-06-07T07:52:12Z</time>
        <speed>3.331818</speed>
      </trkpt>
      <trkpt lat="51.5638897" lon="6.8318397">
        <ele>70.31348</ele>
        <time>2009-06-07T07:52:52Z</time>
        <speed>4.231441</speed>
      </trkpt>
      <trkpt lat="51.5640973" lon="6.831706">
        <ele>70.31348</ele>
        <time>2009-06-07T07:53:13Z</time>
        <speed>4.265853</speed>
      </trkpt>
      <trkpt lat="51.5642548" lon="6.8314808">
        <ele>70.79419</ele>
        <time>2009-06-07T07:53:30Z</time>
        <speed>4.967646</speed>
      </trkpt>
      <trkpt lat="51.5644501" lon="6.8312028">
        <ele>71.2749</ele>
        <time>2009-06-07T07:53:54Z</time>
        <speed>4.354633</speed>
      </trkpt>
      <trkpt lat="51.564759" lon="6.8309022">
        <ele>71.75549</ele>
        <time>2009-06-07T07:54:35Z</time>
        <speed>3.584434</speed>
      </trkpt>
      <trkpt lat="51.5649978" lon="6.8305987">
        <ele>71.75549</ele>
        <time>2009-06-07T07:55:04Z</time>
        <speed>4.205412</speed>
      </trkpt>
      <trkpt lat="51.5652554" lon="6.8302946">
        <ele>72.23621</ele>
        <time>2009-06-07T07:55:33Z</time>
        <speed>4.415039</speed>
      </trkpt>
      <trkpt lat="51.565231" lon="6.8301722">
        <ele>71.75549</ele>
        <time>2009-06-07T07:56:01Z</time>
        <speed>1.144345</speed>
      </trkpt>
      <trkpt lat="51.5653488" lon="6.8303658">
        <ele>71.75549</ele>
        <time>2009-06-07T07:56:21Z</time>
        <speed>3.374814</speed>
      </trkpt>
      <trkpt lat="51.5657566" lon="6.8319845">
        <ele>69.35229</ele>
        <time>2009-06-07T07:58:12Z</time>
        <speed>5.201262</speed>
      </trkpt>
      <trkpt lat="51.5660418" lon="6.8327609">
        <ele>68.39087</ele>
        <time>2009-06-07T07:59:03Z</time>
        <speed>4.578618</speed>
      </trkpt>
      <trkpt lat="51.5666061" lon="6.8345235">
        <ele>66.94897</ele>
        <time>2009-06-07T08:00:59Z</time>
        <speed>3.775548</speed>
      </trkpt>
      <trkpt lat="51.5667265" lon="6.8349452">
        <ele>66.94897</ele>
        <time>2009-06-07T08:01:20Z</time>
        <speed>5.507682</speed>
      </trkpt>
      <trkpt lat="51.5668343" lon="6.8352969">
        <ele>66.46826</ele>
        <time>2009-06-07T08:01:44Z</time>
        <speed>4.072182</speed>
      </trkpt>
      <trkpt lat="51.5673936" lon="6.8370409">
        <ele>64.54565</ele>
        <time>2009-06-07T08:03:38Z</time>
        <speed>3.144305</speed>
      </trkpt>
      <trkpt lat="51.5675139" lon="6.8374077">
        <ele>64.54565</ele>
        <time>2009-06-07T08:04:04Z</time>
        <speed>3.975341</speed>
      </trkpt>
      <trkpt lat="51.5676541" lon="6.837859">
        <ele>64.06506</ele>
        <time>2009-06-07T08:04:28Z</time>
        <speed>5.244658</speed>
      </trkpt>
      <trkpt lat="51.5678631" lon="6.8385028">
        <ele>64.06506</ele>
        <time>2009-06-07T08:05:13Z</time>
        <speed>4.167246</speed>
      </trkpt>
      <trkpt lat="51.568176" lon="6.8394662">
        <ele>63.10364</ele>
        <time>2009-06-07T08:06:22Z</time>
        <speed>3.244816</speed>
      </trkpt>
      <trkpt lat="51.5683441" lon="6.8398961">
        <ele>62.62292</ele>
        <time>2009-06-07T08:06:50Z</time>
        <speed>4.520142</speed>
      </trkpt>
      <trkpt lat="51.5684529" lon="6.8403541">
        <ele>62.62292</ele>
        <time>2009-06-07T08:07:13Z</time>
        <speed>5.319389</speed>
      </trkpt>
      <trkpt lat="51.5686667" lon="6.8410344">
        <ele>62.14233</ele>
        <time>2009-06-07T08:08:04Z</time>
        <speed>3.937963</speed>
      </trkpt>
      <trkpt lat="51.5688477" lon="6.8414037">
        <ele>61.66174</ele>
        <time>2009-06-07T08:08:27Z</time>
        <speed>5.094748</speed>
      </trkpt>
      <trkpt lat="51.5689944" lon="6.8418215">
        <ele>61.66174</ele>
        <time>2009-06-07T08:08:51Z</time>
        <speed>4.9826</speed>
      </trkpt>
      <trkpt lat="51.5691298" lon="6.8421145">
        <ele>60.70032</ele>
        <time>2009-06-07T08:09:17Z</time>
        <speed>3.498939</speed>
      </trkpt>
      <trkpt lat="51.5692442" lon="6.8424502">
        <ele>60.70032</ele>
        <time>2009-06-07T08:09:38Z</time>
        <speed>4.54322</speed>
      </trkpt>
      <trkpt lat="51.5693412" lon="6.8428138">
        <ele>60.21973</ele>
        <time>2009-06-07T08:10:00Z</time>
        <speed>4.482493</speed>
      </trkpt>
      <trkpt lat="51.5693968" lon="6.8431266">
        <ele>60.21973</ele>
        <time>2009-06-07T08:10:22Z</time>
        <speed>3.686051</speed>
      </trkpt>
      <trkpt lat="51.5692808" lon="6.8434033">
        <ele>60.21973</ele>
        <time>2009-06-07T08:10:43Z</time>
        <speed>3.960243</speed>
      </trkpt>
      <trkpt lat="51.5691307" lon="6.8436273">
        <ele>60.21973</ele>
        <time>2009-06-07T08:11:05Z</time>
        <speed>3.729613</speed>
      </trkpt>
      <trkpt lat="51.5691056" lon="6.8437405">
        <ele>60.21973</ele>
        <time>2009-06-07T08:11:11Z</time>
        <speed>4.992702</speed>
      </trkpt>
      <trkpt lat="51.5687236" lon="6.8445012">
        <ele>58.29712</ele>
        <time>2009-06-07T08:12:10Z</time>
        <speed>4.303449</speed>
      </trkpt>
      <trkpt lat="51.5681713" lon="6.8455588">
        <ele>58.77771</ele>
        <time>2009-06-07T08:13:28Z</time>
        <speed>4.457848</speed>
      </trkpt>
      <trkpt lat="51.5680747" lon="6.8457333">
        <ele>59.25842</ele>
        <time>2009-06-07T08:13:42Z</time>
        <speed>4.158441</speed>
      </trkpt>
      <trkpt lat="51.5680675" lon="6.8457692">
        <ele>58.77771</ele>
        <time>2009-06-07T08:13:45Z</time>
        <speed>3.134212</speed>
      </trkpt>
      <trkpt lat="51.5680046" lon="6.845875">
        <ele>59.73914</ele>
        <time>2009-06-07T08:13:54Z</time>
        <speed>4.052651</speed>
      </trkpt>
      <trkpt lat="51.5679405" lon="6.846093">
        <ele>60.21973</ele>
        <time>2009-06-07T08:14:08Z</time>
        <speed>4.29318</speed>
      </trkpt>
      <trkpt lat="51.5674939274339" lon="6.84680561653409">
        <ele>60.21973</ele>
        <time>2009-06-07T08:14:50Z</time>
        <speed>4.522396</speed>
      </trkpt>
      <trkpt lat="51.5679116" lon="6.8471808">
        <ele>59.25842</ele>
        <time>2009-06-07T08:15:35Z</time>
        <speed>6.285482</speed>
      </trkpt>
      <trkpt lat="51.5679717" lon="6.8474001">
        <ele>59.25842</ele>
        <time>2009-06-07T08:15:50Z</time>
        <speed>3.982286</speed>
      </trkpt>
      <trkpt lat="51.5681015" lon="6.8475675">
        <ele>58.77771</ele>
        <time>2009-06-07T08:16:09Z</time>
        <speed>3.508734</speed>
      </trkpt>
      <trkpt lat="51.5682825" lon="6.8477795">
        <ele>58.77771</ele>
        <time>2009-06-07T08:16:29Z</time>
        <speed>4.485745</speed>
      </trkpt>
      <trkpt lat="51.5683918" lon="6.8479593">
        <ele>58.29712</ele>
        <time>2009-06-07T08:16:48Z</time>
        <speed>3.297584</speed>
      </trkpt>
      <trkpt lat="51.5685632" lon="6.8481505">
        <ele>58.29712</ele>
        <time>2009-06-07T08:17:06Z</time>
        <speed>4.643071</speed>
      </trkpt>
      <trkpt lat="51.5686844" lon="6.8482306">
        <ele>58.29712</ele>
        <time>2009-06-07T08:17:11Z</time>
        <speed>10.49817</speed>
      </trkpt>
      <trkpt lat="51.5697249" lon="6.8493013">
        <ele>57.33582</ele>
        <time>2009-06-07T08:19:03Z</time>
        <speed>5.231348</speed>
      </trkpt>
      <trkpt lat="51.5698425" lon="6.8495473">
        <ele>57.33582</ele>
        <time>2009-06-07T08:19:27Z</time>
        <speed>3.221872</speed>
      </trkpt>
      <trkpt lat="51.5699936" lon="6.8497991">
        <ele>56.8551</ele>
        <time>2009-06-07T08:19:48Z</time>
        <speed>4.152045</speed>
      </trkpt>
      <trkpt lat="51.57015" lon="6.8500628">
        <ele>56.37451</ele>
        <time>2009-06-07T08:20:05Z</time>
        <speed>5.341368</speed>
      </trkpt>
      <trkpt lat="51.5703234" lon="6.8503275">
        <ele>56.37451</ele>
        <time>2009-06-07T08:20:30Z</time>
        <speed>3.831967</speed>
      </trkpt>
      <trkpt lat="51.5703442" lon="6.8505483">
        <ele>56.37451</ele>
        <time>2009-06-07T08:20:44Z</time>
        <speed>3.976229</speed>
      </trkpt>
      <trkpt lat="51.5703535" lon="6.8508807">
        <ele>57.33582</ele>
        <time>2009-06-07T08:21:04Z</time>
        <speed>4.14716</speed>
      </trkpt>
      <trkpt lat="51.5703358" lon="6.8510918">
        <ele>57.81653</ele>
        <time>2009-06-07T08:21:28Z</time>
        <speed>2.212403</speed>
      </trkpt>
      <trkpt lat="51.570266" lon="6.8514734">
        <ele>58.29712</ele>
        <time>2009-06-07T08:21:51Z</time>
        <speed>4.310751</speed>
      </trkpt>
      <trkpt lat="51.5702536" lon="6.851731">
        <ele>56.8551</ele>
        <time>2009-06-07T08:22:09Z</time>
        <speed>3.578085</speed>
      </trkpt>
      <trkpt lat="51.5702832" lon="6.8517115">
        <ele>55.8938</ele>
        <time>2009-06-07T08:22:45Z</time>
        <speed>0.3559327</speed>
      </trkpt>
      <trkpt lat="51.5703776" lon="6.8518541">
        <ele>55.41309</ele>
        <time>2009-06-07T08:23:33Z</time>
        <speed>1.081167</speed>
      </trkpt>
      <trkpt lat="51.5705301" lon="6.8518819">
        <ele>54.93237</ele>
        <time>2009-06-07T08:23:50Z</time>
        <speed>3.616067</speed>
      </trkpt>
      <trkpt lat="51.570616" lon="6.8518619">
        <ele>55.41309</ele>
        <time>2009-06-07T08:24:09Z</time>
        <speed>1.829743</speed>
      </trkpt>
      <trkpt lat="51.5707142" lon="6.8517104">
        <ele>54.93237</ele>
        <time>2009-06-07T08:24:29Z</time>
        <speed>2.72637</speed>
      </trkpt>
      <trkpt lat="51.5707762" lon="6.8516173">
        <ele>55.41309</ele>
        <time>2009-06-07T08:24:52Z</time>
        <speed>1.477791</speed>
      </trkpt>
      <trkpt lat="51.5708461" lon="6.8517052">
        <ele>55.8938</ele>
        <time>2009-06-07T08:25:01Z</time>
        <speed>3.950225</speed>
      </trkpt>
      <trkpt lat="51.5708865" lon="6.8517827">
        <ele>56.37451</ele>
        <time>2009-06-07T08:25:04Z</time>
        <speed>8.400097</speed>
      </trkpt>
      <trkpt lat="51.5709255" lon="6.8518081">
        <ele>56.37451</ele>
        <time>2009-06-07T08:25:07Z</time>
        <speed>5.618398</speed>
      </trkpt>
      <trkpt lat="51.5710792" lon="6.851925">
        <ele>57.81653</ele>
        <time>2009-06-07T08:25:20Z</time>
        <speed>5.239253</speed>
      </trkpt>
      <trkpt lat="51.5712563" lon="6.8521929">
        <ele>58.77771</ele>
        <time>2009-06-07T08:25:43Z</time>
        <speed>4.235786</speed>
      </trkpt>
      <trkpt lat="51.5712728" lon="6.852204">
        <ele>58.77771</ele>
        <time>2009-06-07T08:25:46Z</time>
        <speed>2.388212</speed>
      </trkpt>
      <trkpt lat="51.5712857" lon="6.852252">
        <ele>58.77771</ele>
        <time>2009-06-07T08:34:47Z</time>
        <speed>0.02409053</speed>
      </trkpt>
      <trkpt lat="51.5711161" lon="6.8526146">
        <ele>60.21973</ele>
        <time>2009-06-07T08:35:31Z</time>
        <speed>3.207207</speed>
      </trkpt>
      <trkpt lat="51.570859" lon="6.85292">
        <ele>60.70032</ele>
        <time>2009-06-07T08:35:59Z</time>
        <speed>4.573624</speed>
      </trkpt>
      <trkpt lat="51.5707167" lon="6.8530564">
        <ele>61.18103</ele>
        <time>2009-06-07T08:36:11Z</time>
        <speed>5.530593</speed>
      </trkpt>
      <trkpt lat="51.5705596" lon="6.8533551">
        <ele>62.14233</ele>
        <time>2009-06-07T08:36:35Z</time>
        <speed>4.061903</speed>
      </trkpt>
      <trkpt lat="51.5703342" lon="6.8536593">
        <ele>62.62292</ele>
        <time>2009-06-07T08:36:57Z</time>
        <speed>5.359138</speed>
      </trkpt>
      <trkpt lat="51.570113" lon="6.8538983">
        <ele>62.62292</ele>
        <time>2009-06-07T08:37:20Z</time>
        <speed>4.642012</speed>
      </trkpt>
      <trkpt lat="51.5699122" lon="6.8541921">
        <ele>62.14233</ele>
        <time>2009-06-07T08:37:44Z</time>
        <speed>4.532351</speed>
      </trkpt>
      <trkpt lat="51.5697777" lon="6.8544874">
        <ele>62.14233</ele>
        <time>2009-06-07T08:38:07Z</time>
        <speed>3.966044</speed>
      </trkpt>
      <trkpt lat="51.569573" lon="6.8547697">
        <ele>62.14233</ele>
        <time>2009-06-07T08:38:31Z</time>
        <speed>4.502006</speed>
      </trkpt>
      <trkpt lat="51.5694367" lon="6.8551139">
        <ele>61.66174</ele>
        <time>2009-06-07T08:38:52Z</time>
        <speed>4.842751</speed>
      </trkpt>
      <trkpt lat="51.5694355" lon="6.8551393">
        <ele>62.14233</ele>
        <time>2009-06-07T08:38:53Z</time>
        <speed>6.349966</speed>
      </trkpt>
      <trkpt lat="51.5693749" lon="6.8553521">
        <ele>62.14233</ele>
        <time>2009-06-07T08:39:08Z</time>
        <speed>3.889097</speed>
      </trkpt>
      <trkpt lat="51.5692941" lon="6.8554589">
        <ele>62.14233</ele>
        <time>2009-06-07T08:39:18Z</time>
        <speed>4.190667</speed>
      </trkpt>
      <trkpt lat="51.5692307" lon="6.8556441">
        <ele>61.66174</ele>
        <time>2009-06-07T08:39:37Z</time>
        <speed>2.773163</speed>
      </trkpt>
      <trkpt lat="51.5690869" lon="6.8560387">
        <ele>61.66174</ele>
        <time>2009-06-07T08:39:59Z</time>
        <speed>5.18131</speed>
      </trkpt>
      <trkpt lat="51.5690688" lon="6.8560971">
        <ele>61.66174</ele>
        <time>2009-06-07T08:40:03Z</time>
        <speed>4.065842</speed>
      </trkpt>
      <trkpt lat="51.5690103" lon="6.8562588">
        <ele>61.66174</ele>
        <time>2009-06-07T08:40:15Z</time>
        <speed>3.885379</speed>
      </trkpt>
      <trkpt lat="51.5688862079487" lon="6.85656334914365">
        <ele>62.14233</ele>
        <time>2009-06-07T08:40:30Z</time>
        <speed>4.054524</speed>
      </trkpt>
      <trkpt lat="51.5688001220132" lon="6.85702169890159">
        <ele>61.66174</ele>
        <time>2009-06-07T08:40:58Z</time>
        <speed>4.400753</speed>
      </trkpt>
      <trkpt lat="51.5685677342968" lon="6.85835255695">
        <ele>61.66174</ele>
        <time>2009-06-07T08:42:15Z</time>
        <speed>4.138978</speed>
      </trkpt>
      <trkpt lat="51.5684464246448" lon="6.85909393716661">
        <ele>61.66174</ele>
        <time>2009-06-07T08:42:41Z</time>
        <speed>4.207454</speed>
      </trkpt>
      <trkpt lat="51.5683537036591" lon="6.85992053295894">
        <ele>61.66174</ele>
        <time>2009-06-07T08:43:43Z</time>
        <speed>4.330448</speed>
      </trkpt>
      <trkpt lat="51.5682375069273" lon="6.86094283433562">
        <ele>60.70032</ele>
        <time>2009-06-07T08:44:54Z</time>
        <speed>4.043919</speed>
      </trkpt>
      <trkpt lat="51.5681359248286" lon="6.86211242417229">
        <ele>60.21973</ele>
        <time>2009-06-07T08:46:01Z</time>
        <speed>4.920207</speed>
      </trkpt>
      <trkpt lat="51.5681477413675" lon="6.86276090963998">
        <ele>60.70032</ele>
        <time>2009-06-07T08:46:27Z</time>
        <speed>4.184423</speed>
      </trkpt>
      <trkpt lat="51.5681780737342" lon="6.86319229768677">
        <ele>60.70032</ele>
        <time>2009-06-07T08:46:52Z</time>
        <speed>4.945555</speed>
      </trkpt>
      <trkpt lat="51.568228232955" lon="6.86347843915704">
        <ele>60.70032</ele>
        <time>2009-06-07T08:47:08Z</time>
        <speed>3.941117</speed>
      </trkpt>
      <trkpt lat="51.5683985370652" lon="6.86419169037759">
        <ele>60.70032</ele>
        <time>2009-06-07T08:47:51Z</time>
        <speed>4.183939</speed>
      </trkpt>
      <trkpt lat="51.5684215673744" lon="6.86439585363108">
        <ele>60.70032</ele>
        <time>2009-06-07T08:48:05Z</time>
        <speed>5.272545</speed>
      </trkpt>
      <trkpt lat="51.5685069854216" lon="6.86465146762809">
        <ele>60.70032</ele>
        <time>2009-06-07T08:48:29Z</time>
        <speed>4.136938</speed>
      </trkpt>
      <trkpt lat="51.5686189919846" lon="6.86519109296119">
        <ele>60.21973</ele>
        <time>2009-06-07T08:48:52Z</time>
        <speed>4.595121</speed>
      </trkpt>
      <trkpt lat="51.5686860410543" lon="6.8655951993545">
        <ele>59.73914</ele>
        <time>2009-06-07T08:49:03Z</time>
        <speed>5.125972</speed>
      </trkpt>
      <trkpt lat="51.5687875005419" lon="6.86597994577347">
        <ele>59.73914</ele>
        <time>2009-06-07T08:49:26Z</time>
        <speed>4.486653</speed>
      </trkpt>
      <trkpt lat="51.5688341415638" lon="6.86632401466404">
        <ele>59.73914</ele>
        <time>2009-06-07T08:49:53Z</time>
        <speed>4.228958</speed>
      </trkpt>
      <trkpt lat="51.5688941139883" lon="6.8666674599906">
        <ele>60.70032</ele>
        <time>2009-06-07T08:50:19Z</time>
        <speed>3.97371</speed>
      </trkpt>
      <trkpt lat="51.5689166319688" lon="6.866727824134">
        <ele>61.66174</ele>
        <time>2009-06-07T08:50:40Z</time>
        <speed>4.00803</speed>
      </trkpt>
      <trkpt lat="51.56907" lon="6.867322">
        <ele>63.58435</ele>
        <time>2009-06-07T08:51:04Z</time>
        <speed>4.67963</speed>
      </trkpt>
      <trkpt lat="51.5690323" lon="6.8675719">
        <ele>65.02637</ele>
        <time>2009-06-07T08:51:26Z</time>
        <speed>2.913633</speed>
      </trkpt>
      <trkpt lat="51.5689034" lon="6.867592">
        <ele>65.02637</ele>
        <time>2009-06-07T08:51:37Z</time>
        <speed>4.71557</speed>
      </trkpt>
      <trkpt lat="51.5686596" lon="6.867761">
        <ele>64.06506</ele>
        <time>2009-06-07T08:52:02Z</time>
        <speed>4.25401</speed>
      </trkpt>
      <trkpt lat="51.5683805" lon="6.8678948">
        <ele>63.58435</ele>
        <time>2009-06-07T08:52:28Z</time>
        <speed>4.486872</speed>
      </trkpt>
      <trkpt lat="51.5681606" lon="6.8680471">
        <ele>63.10364</ele>
        <time>2009-06-07T08:52:51Z</time>
        <speed>4.170073</speed>
      </trkpt>
      <trkpt lat="51.5678711731957" lon="6.86823007977185">
        <ele>62.62292</ele>
        <time>2009-06-07T08:53:14Z</time>
        <speed>4.210852</speed>
      </trkpt>
      <trkpt lat="51.567912" lon="6.8682448">
        <ele>63.10364</ele>
        <time>2009-06-07T08:53:18Z</time>
        <speed>3.681405</speed>
      </trkpt>
      <trkpt lat="51.5678955" lon="6.8683232">
        <ele>62.62292</ele>
        <time>2009-06-07T08:53:23Z</time>
        <speed>4.12629</speed>
      </trkpt>
      <trkpt lat="51.5678347534652" lon="6.86844815228316">
        <ele>62.62292</ele>
        <time>2009-06-07T08:53:38Z</time>
        <speed>3.850721</speed>
      </trkpt>
      <trkpt lat="51.5677995121527" lon="6.86873110796654">
        <ele>62.14233</ele>
        <time>2009-06-07T08:54:01Z</time>
        <speed>4.194237</speed>
      </trkpt>
      <trkpt lat="51.5677000483964" lon="6.86919018941504">
        <ele>61.18103</ele>
        <time>2009-06-07T08:54:16Z</time>
        <speed>4.472303</speed>
      </trkpt>
      <trkpt lat="51.5677494" lon="6.8693332">
        <ele>60.70032</ele>
        <time>2009-06-07T08:54:26Z</time>
        <speed>5.022772</speed>
      </trkpt>
      <trkpt lat="51.5675829708204" lon="6.86943358432302">
        <ele>60.70032</ele>
        <time>2009-06-07T08:54:39Z</time>
        <speed>4.290217</speed>
      </trkpt>
      <trkpt lat="51.5673526" lon="6.8696828">
        <ele>60.70032</ele>
        <time>2009-06-07T08:55:15Z</time>
        <speed>3.850643</speed>
      </trkpt>
      <trkpt lat="51.5672421" lon="6.8696781">
        <ele>60.21973</ele>
        <time>2009-06-07T08:55:23Z</time>
        <speed>5.534298</speed>
      </trkpt>
      <trkpt lat="51.5670366164281" lon="6.8697836797844">
        <ele>60.21973</ele>
        <time>2009-06-07T08:55:46Z</time>
        <speed>4.491506</speed>
      </trkpt>
      <trkpt lat="51.5667659826624" lon="6.86973139571575">
        <ele>60.70032</ele>
        <time>2009-06-07T08:56:08Z</time>
        <speed>4.124407</speed>
      </trkpt>
      <trkpt lat="51.5664683331439" lon="6.86968037535027">
        <ele>61.18103</ele>
        <time>2009-06-07T08:56:32Z</time>
        <speed>5.129637</speed>
      </trkpt>
      <trkpt lat="51.5661977018781" lon="6.86962823318956">
        <ele>61.66174</ele>
        <time>2009-06-07T08:56:57Z</time>
        <speed>4.020247</speed>
      </trkpt>
      <trkpt lat="51.56599" lon="6.8695464">
        <ele>61.66174</ele>
        <time>2009-06-07T08:57:19Z</time>
        <speed>4.064197</speed>
      </trkpt>
      <trkpt lat="51.5658459780805" lon="6.86955805010873">
        <ele>61.66174</ele>
        <time>2009-06-07T08:57:32Z</time>
        <speed>4.408176</speed>
      </trkpt>
      <trkpt lat="51.5656701" lon="6.8694676">
        <ele>61.66174</ele>
        <time>2009-06-07T08:57:51Z</time>
        <speed>3.914698</speed>
      </trkpt>
      <trkpt lat="51.5653725" lon="6.8694883">
        <ele>61.66174</ele>
        <time>2009-06-07T08:58:15Z</time>
        <speed>4.971258</speed>
      </trkpt>
      <trkpt lat="51.5651085" lon="6.8694037">
        <ele>62.14233</ele>
        <time>2009-06-07T08:58:40Z</time>
        <speed>4.312942</speed>
      </trkpt>
      <trkpt lat="51.564934" lon="6.8693694">
        <ele>62.14233</ele>
        <time>2009-06-07T08:59:03Z</time>
        <speed>3.061483</speed>
      </trkpt>
      <trkpt lat="51.5646631" lon="6.8693007">
        <ele>62.62292</ele>
        <time>2009-06-07T08:59:24Z</time>
        <speed>5.230845</speed>
      </trkpt>
      <trkpt lat="51.5643783" lon="6.8692784">
        <ele>62.62292</ele>
        <time>2009-06-07T08:59:49Z</time>
        <speed>4.568284</speed>
      </trkpt>
      <trkpt lat="51.5642048" lon="6.8692944">
        <ele>62.62292</ele>
        <time>2009-06-07T09:00:08Z</time>
        <speed>3.663516</speed>
      </trkpt>
      <trkpt lat="51.5639112375077" lon="6.86921580799683">
        <ele>63.10364</ele>
        <time>2009-06-07T09:00:29Z</time>
        <speed>3.707269</speed>
      </trkpt>
      <trkpt lat="51.563916281913" lon="6.86873963069459">
        <ele>63.10364</ele>
        <time>2009-06-07T09:00:51Z</time>
        <speed>3.251669</speed>
      </trkpt>
      <trkpt lat="51.5638810166835" lon="6.86828688947668">
        <ele>62.62292</ele>
        <time>2009-06-07T09:01:12Z</time>
        <speed>3.902155</speed>
      </trkpt>
      <trkpt lat="51.5639641" lon="6.8682693">
        <ele>62.62292</ele>
        <time>2009-06-07T09:01:31Z</time>
        <speed>4.181208</speed>
      </trkpt>
      <trkpt lat="51.5638719801019" lon="6.8677896798947">
        <ele>62.14233</ele>
        <time>2009-06-07T09:02:09Z</time>
        <speed>4.077529</speed>
      </trkpt>
      <trkpt lat="51.5638469015459" lon="6.86716349607891">
        <ele>61.18103</ele>
        <time>2009-06-07T09:02:36Z</time>
        <speed>3.958737</speed>
      </trkpt>
      <trkpt lat="51.5638229562857" lon="6.86658050155284">
        <ele>60.21973</ele>
        <time>2009-06-07T09:03:00Z</time>
        <speed>4.792394</speed>
      </trkpt>
      <trkpt lat="51.5638139124818" lon="6.86608329315619">
        <ele>59.25842</ele>
        <time>2009-06-07T09:03:44Z</time>
        <speed>4.486407</speed>
      </trkpt>
      <trkpt lat="51.563785242014" lon="6.86524092987092">
        <ele>58.77771</ele>
        <time>2009-06-07T09:04:30Z</time>
        <speed>4.82446</speed>
      </trkpt>
      <trkpt lat="51.5636613970375" lon="6.86435964561602">
        <ele>57.81653</ele>
        <time>2009-06-07T09:05:23Z</time>
        <speed>5.471913</speed>
      </trkpt>
      <trkpt lat="51.5633727" lon="6.863803">
        <ele>56.8551</ele>
        <time>2009-06-07T09:06:07Z</time>
        <speed>4.623868</speed>
      </trkpt>
      <trkpt lat="51.5629016" lon="6.862848">
        <ele>55.41309</ele>
        <time>2009-06-07T09:07:16Z</time>
        <speed>3.85369</speed>
      </trkpt>
      <trkpt lat="51.5628495" lon="6.8628178">
        <ele>54.93237</ele>
        <time>2009-06-07T09:07:19Z</time>
        <speed>7.394851</speed>
      </trkpt>
      <trkpt lat="51.5627951" lon="6.862614">
        <ele>54.93237</ele>
        <time>2009-06-07T09:07:31Z</time>
        <speed>4.607141</speed>
      </trkpt>
      <trkpt lat="51.562012" lon="6.8609425">
        <ele>52.52917</ele>
        <time>2009-06-07T09:09:32Z</time>
        <speed>3.78308</speed>
      </trkpt>
      <trkpt lat="51.5619033" lon="6.8607069">
        <ele>52.04858</ele>
        <time>2009-06-07T09:09:48Z</time>
        <speed>4.56976</speed>
      </trkpt>
      <trkpt lat="51.5617773" lon="6.8604292">
        <ele>52.04858</ele>
        <time>2009-06-07T09:10:11Z</time>
        <speed>3.725122</speed>
      </trkpt>
      <trkpt lat="51.5612937494312" lon="6.8594948392606">
        <ele>52.04858</ele>
        <time>2009-06-07T09:10:30Z</time>
        <speed>4.103521</speed>
      </trkpt>
      <trkpt lat="51.5619108" lon="6.8583598">
        <ele>51.08716</ele>
        <time>2009-06-07T09:12:49Z</time>
        <speed>5.077779</speed>
      </trkpt>
      <trkpt lat="51.5619147" lon="6.8583353">
        <ele>51.08716</ele>
        <time>2009-06-07T09:12:51Z</time>
        <speed>3.152485</speed>
      </trkpt>
      <trkpt lat="51.5619874" lon="6.85815">
        <ele>51.08716</ele>
        <time>2009-06-07T09:13:05Z</time>
        <speed>3.900736</speed>
      </trkpt>
      <trkpt lat="51.5625940059878" lon="6.85683756656346">
        <ele>48.68396</ele>
        <time>2009-06-07T09:14:58Z</time>
        <speed>4.735449</speed>
      </trkpt>
      <trkpt lat="51.5635981" lon="6.8548388">
        <ele>42.43542</ele>
        <time>2009-06-07T09:17:20Z</time>
        <speed>5.560497</speed>
      </trkpt>
      <trkpt lat="51.5634474" lon="6.8546118">
        <ele>41.474</ele>
        <time>2009-06-07T09:17:42Z</time>
        <speed>3.761008</speed>
      </trkpt>
      <trkpt lat="51.5632243" lon="6.8544437">
        <ele>40.99341</ele>
        <time>2009-06-07T09:18:01Z</time>
        <speed>5.194667</speed>
      </trkpt>
      <trkpt lat="51.5630333" lon="6.8541392">
        <ele>41.474</ele>
        <time>2009-06-07T09:18:23Z</time>
        <speed>4.898949</speed>
      </trkpt>
      <trkpt lat="51.5627266" lon="6.8537586">
        <ele>41.474</ele>
        <time>2009-06-07T09:19:01Z</time>
        <speed>4.303099</speed>
      </trkpt>
      <trkpt lat="51.5625443" lon="6.8535159">
        <ele>40.99341</ele>
        <time>2009-06-07T09:19:24Z</time>
        <speed>4.123085</speed>
      </trkpt>
      <trkpt lat="51.5623771" lon="6.8533072">
        <ele>40.51282</ele>
        <time>2009-06-07T09:19:42Z</time>
        <speed>4.711518</speed>
      </trkpt>
      <trkpt lat="51.5621571" lon="6.8530423">
        <ele>39.55127</ele>
        <time>2009-06-07T09:20:08Z</time>
        <speed>4.235413</speed>
      </trkpt>
      <trkpt lat="51.5620156" lon="6.8527837">
        <ele>39.07068</ele>
        <time>2009-06-07T09:20:27Z</time>
        <speed>4.518065</speed>
      </trkpt>
      <trkpt lat="51.561662" lon="6.8523446">
        <ele>40.0321</ele>
        <time>2009-06-07T09:21:12Z</time>
        <speed>4.084585</speed>
      </trkpt>
      <trkpt lat="51.5615214" lon="6.85214">
        <ele>40.0321</ele>
        <time>2009-06-07T09:21:30Z</time>
        <speed>4.221331</speed>
      </trkpt>
      <trkpt lat="51.5613174" lon="6.8519073">
        <ele>40.0321</ele>
        <time>2009-06-07T09:21:50Z</time>
        <speed>5.010584</speed>
      </trkpt>
      <trkpt lat="51.5611778" lon="6.8517858">
        <ele>40.51282</ele>
        <time>2009-06-07T09:22:04Z</time>
        <speed>4.542366</speed>
      </trkpt>
      <trkpt lat="51.5609527" lon="6.8514873">
        <ele>40.51282</ele>
        <time>2009-06-07T09:22:33Z</time>
        <speed>3.59767</speed>
      </trkpt>
      <trkpt lat="51.5607701" lon="6.851265">
        <ele>40.51282</ele>
        <time>2009-06-07T09:22:54Z</time>
        <speed>4.369824</speed>
      </trkpt>
      <trkpt lat="51.5606073" lon="6.8510089">
        <ele>40.0321</ele>
        <time>2009-06-07T09:23:16Z</time>
        <speed>4.14837</speed>
      </trkpt>
      <trkpt lat="51.5604573" lon="6.8507595">
        <ele>39.55127</ele>
        <time>2009-06-07T09:23:35Z</time>
        <speed>4.550822</speed>
      </trkpt>
      <trkpt lat="51.5602801" lon="6.850486">
        <ele>39.55127</ele>
        <time>2009-06-07T09:23:56Z</time>
        <speed>4.686911</speed>
      </trkpt>
      <trkpt lat="51.5602605" lon="6.8504508">
        <ele>39.55127</ele>
        <time>2009-06-07T09:24:01Z</time>
        <speed>2.355043</speed>
      </trkpt>
      <trkpt lat="51.5601295" lon="6.8503256">
        <ele>39.55127</ele>
        <time>2009-06-07T09:24:10Z</time>
        <speed>6.783726</speed>
      </trkpt>
      <trkpt lat="51.5600168" lon="6.8502138">
        <ele>38.59009</ele>
        <time>2009-06-07T09:24:22Z</time>
        <speed>4.421111</speed>
      </trkpt>
      <trkpt lat="51.5599088" lon="6.8499899">
        <ele>39.07068</ele>
        <time>2009-06-07T09:24:44Z</time>
        <speed>3.210172</speed>
      </trkpt>
      <trkpt lat="51.5597538" lon="6.8498197">
        <ele>38.59009</ele>
        <time>2009-06-07T09:25:09Z</time>
        <speed>3.008017</speed>
      </trkpt>
      <trkpt lat="51.5597387" lon="6.8496934">
        <ele>38.59009</ele>
        <time>2009-06-07T09:25:17Z</time>
        <speed>4.008306</speed>
      </trkpt>
      <trkpt lat="51.5597614" lon="6.8494825">
        <ele>38.59009</ele>
        <time>2009-06-07T09:25:36Z</time>
        <speed>2.808676</speed>
      </trkpt>
      <trkpt lat="51.5598497" lon="6.8494809">
        <ele>39.07068</ele>
        <time>2009-06-07T09:25:55Z</time>
        <speed>1.86154</speed>
      </trkpt>
      <trkpt lat="51.5598456" lon="6.849554">
        <ele>39.07068</ele>
        <time>2009-06-07T09:26:05Z</time>
        <speed>1.830013</speed>
      </trkpt>
      <trkpt lat="51.5598471" lon="6.8493867">
        <ele>41.95471</ele>
        <time>2009-06-07T09:29:32Z</time>
        <speed>0.2015356</speed>
      </trkpt>
      <trkpt lat="51.559853" lon="6.8493688">
        <ele>41.95471</ele>
        <time>2009-06-07T09:29:34Z</time>
        <speed>2.525048</speed>
      </trkpt>
      <trkpt lat="51.5599012" lon="6.8492842">
        <ele>41.95471</ele>
        <time>2009-06-07T09:29:52Z</time>
        <speed>1.588587</speed>
      </trkpt>
      <trkpt lat="51.560058" lon="6.8489496">
        <ele>42.43542</ele>
        <time>2009-06-07T09:30:15Z</time>
        <speed>4.540162</speed>
      </trkpt>
      <trkpt lat="51.5602186" lon="6.8487073">
        <ele>42.91602</ele>
        <time>2009-06-07T09:30:35Z</time>
        <speed>4.412347</speed>
      </trkpt>
      <trkpt lat="51.5602314" lon="6.8486657">
        <ele>42.43542</ele>
        <time>2009-06-07T09:30:39Z</time>
        <speed>2.89252</speed>
      </trkpt>
      <trkpt lat="51.5602549" lon="6.8486217">
        <ele>42.91602</ele>
        <time>2009-06-07T09:30:42Z</time>
        <speed>4.818358</speed>
      </trkpt>
      <trkpt lat="51.560336" lon="6.8485378">
        <ele>42.43542</ele>
        <time>2009-06-07T09:30:57Z</time>
        <speed>2.575747</speed>
      </trkpt>
      <trkpt lat="51.5605543" lon="6.8482081">
        <ele>42.91602</ele>
        <time>2009-06-07T09:31:39Z</time>
        <speed>3.116361</speed>
      </trkpt>
      <trkpt lat="51.5604841" lon="6.848256">
        <ele>42.43542</ele>
        <time>2009-06-07T09:31:53Z</time>
        <speed>2.182046</speed>
      </trkpt>
      <trkpt lat="51.5605131" lon="6.8482251">
        <ele>42.91602</ele>
        <time>2009-06-07T09:32:02Z</time>
        <speed>1.548694</speed>
      </trkpt>
      <trkpt lat="51.5606035" lon="6.8480659">
        <ele>42.91602</ele>
        <time>2009-06-07T09:32:17Z</time>
        <speed>3.581798</speed>
      </trkpt>
      <trkpt lat="51.5606742" lon="6.8479318">
        <ele>42.91602</ele>
        <time>2009-06-07T09:32:31Z</time>
        <speed>3.129675</speed>
      </trkpt>
      <trkpt lat="51.5607493" lon="6.847783">
        <ele>43.39661</ele>
        <time>2009-06-07T09:32:42Z</time>
        <speed>4.342018</speed>
      </trkpt>
      <trkpt lat="51.5607817" lon="6.8477579">
        <ele>43.39661</ele>
        <time>2009-06-07T09:32:45Z</time>
        <speed>4.80247</speed>
      </trkpt>
      <trkpt lat="51.5607953" lon="6.8477038">
        <ele>43.39661</ele>
        <time>2009-06-07T09:32:49Z</time>
        <speed>3.636765</speed>
      </trkpt>
      <trkpt lat="51.5608184" lon="6.8476351">
        <ele>43.87732</ele>
        <time>2009-06-07T09:32:54Z</time>
        <speed>3.893601</speed>
      </trkpt>
      <trkpt lat="51.5609524" lon="6.8474178">
        <ele>44.35803</ele>
        <time>2009-06-07T09:33:14Z</time>
        <speed>3.813128</speed>
      </trkpt>
      <trkpt lat="51.5610448" lon="6.8472618">
        <ele>44.35803</ele>
        <time>2009-06-07T09:33:28Z</time>
        <speed>3.834928</speed>
      </trkpt>
      <trkpt lat="51.561105" lon="6.8471299">
        <ele>44.35803</ele>
        <time>2009-06-07T09:33:39Z</time>
        <speed>3.707147</speed>
      </trkpt>
      <trkpt lat="51.5615198" lon="6.8465001">
        <ele>44.35803</ele>
        <time>2009-06-07T09:34:49Z</time>
        <speed>5.608696</speed>
      </trkpt>
      <trkpt lat="51.5616811" lon="6.8461934">
        <ele>43.87732</ele>
        <time>2009-06-07T09:35:13Z</time>
        <speed>4.171088</speed>
      </trkpt>
      <trkpt lat="51.5618777" lon="6.8458722">
        <ele>43.87732</ele>
        <time>2009-06-07T09:35:38Z</time>
        <speed>4.492474</speed>
      </trkpt>
      <trkpt lat="51.5620393" lon="6.8456095">
        <ele>43.87732</ele>
        <time>2009-06-07T09:36:00Z</time>
        <speed>4.185599</speed>
      </trkpt>
      <trkpt lat="51.5622269" lon="6.845318">
        <ele>44.83862</ele>
        <time>2009-06-07T09:36:24Z</time>
        <speed>4.355706</speed>
      </trkpt>
      <trkpt lat="51.5623455" lon="6.8451764">
        <ele>45.31921</ele>
        <time>2009-06-07T09:36:46Z</time>
        <speed>2.690243</speed>
      </trkpt>
      <trkpt lat="51.5624474" lon="6.8449474">
        <ele>46.28064</ele>
        <time>2009-06-07T09:37:04Z</time>
        <speed>3.899018</speed>
      </trkpt>
      <trkpt lat="51.562642" lon="6.8446192">
        <ele>46.76123</ele>
        <time>2009-06-07T09:37:31Z</time>
        <speed>4.185478</speed>
      </trkpt>
      <trkpt lat="51.5627413947406" lon="6.84426108505656">
        <ele>47.72253</ele>
        <time>2009-06-07T09:37:52Z</time>
        <speed>4.96662</speed>
      </trkpt>
      <trkpt lat="51.5625548009019" lon="6.84364257058088">
        <ele>48.68396</ele>
        <time>2009-06-07T09:38:36Z</time>
        <speed>4.401533</speed>
      </trkpt>
      <trkpt lat="51.5626119" lon="6.8435679">
        <ele>48.68396</ele>
        <time>2009-06-07T09:38:47Z</time>
        <speed>3.305468</speed>
      </trkpt>
      <trkpt lat="51.5626189" lon="6.8435478">
        <ele>48.68396</ele>
        <time>2009-06-07T09:38:49Z</time>
        <speed>2.871153</speed>
      </trkpt>
      <trkpt lat="51.5625947" lon="6.8435221">
        <ele>48.68396</ele>
        <time>2009-06-07T09:38:53Z</time>
        <speed>2.904824</speed>
      </trkpt>
      <trkpt lat="51.5621192218974" lon="6.84195413581726">
        <ele>52.52917</ele>
        <time>2009-06-07T09:40:35Z</time>
        <speed>5.832444</speed>
      </trkpt>
      <trkpt lat="51.561801229122" lon="6.84077932127097">
        <ele>54.45178</ele>
        <time>2009-06-07T09:41:48Z</time>
        <speed>4.970901</speed>
      </trkpt>
      <trkpt lat="51.5610508680264" lon="6.83813220913856">
        <ele>62.001</ele>
        <time>2013-05-07T18:18:37.17Z</time>
      </trkpt>
      <trkpt lat="51.560487114754" lon="6.83532498401588">
        <ele>57.33582</ele>
        <time>2009-06-07T09:47:34Z</time>
        <speed>4.039687</speed>
      </trkpt>
      <trkpt lat="51.5607431" lon="6.8348797">
        <ele>57.81653</ele>
        <time>2009-06-07T09:48:13Z</time>
        <speed>3.642769</speed>
      </trkpt>
      <trkpt lat="51.5608377" lon="6.8344866">
        <ele>57.81653</ele>
        <time>2009-06-07T09:48:36Z</time>
        <speed>4.568705</speed>
      </trkpt>
    </trkseg>
  </trk>
</gpx>